Map

Track Data

SID SEASON NUMBER BASIN SUBBASIN NAME ISO_TIME NATURE LAT LON WMO_WIND WMO_PRES WMO_AGENCY TRACK_TYPE DIST2LAND LANDFALL IFLAG USA_AGENCY USA_ATCF_ID USA_LAT USA_LON USA_RECORD USA_STATUS USA_WIND USA_PRES USA_SSHS USA_R34_NE USA_R34_SE USA_R34_SW USA_R34_NW USA_R50_NE USA_R50_SE USA_R50_SW USA_R50_NW USA_R64_NE USA_R64_SE USA_R64_SW USA_R64_NW USA_POCI USA_ROCI USA_RMW USA_EYE TOKYO_LAT TOKYO_LON TOKYO_GRADE TOKYO_WIND TOKYO_PRES TOKYO_R50_DIR TOKYO_R50_LONG TOKYO_R50_SHORT TOKYO_R30_DIR TOKYO_R30_LONG TOKYO_R30_SHORT TOKYO_LAND CMA_LAT CMA_LON CMA_CAT CMA_WIND CMA_PRES HKO_LAT HKO_LON HKO_CAT HKO_WIND HKO_PRES NEWDELHI_LAT NEWDELHI_LON NEWDELHI_GRADE NEWDELHI_WIND NEWDELHI_PRES NEWDELHI_CI NEWDELHI_DP NEWDELHI_POCI REUNION_LAT REUNION_LON REUNION_TYPE REUNION_WIND REUNION_PRES REUNION_TNUM REUNION_CI REUNION_RMW REUNION_R34_NE REUNION_R34_SE REUNION_R34_SW REUNION_R34_NW REUNION_R50_NE REUNION_R50_SE REUNION_R50_SW REUNION_R50_NW REUNION_R64_NE REUNION_R64_SE REUNION_R64_SW REUNION_R64_NW BOM_LAT BOM_LON BOM_TYPE BOM_WIND BOM_PRES BOM_TNUM BOM_CI BOM_RMW BOM_R34_NE BOM_R34_SE BOM_R34_SW BOM_R34_NW BOM_R50_NE BOM_R50_SE BOM_R50_SW BOM_R50_NW BOM_R64_NE BOM_R64_SE BOM_R64_SW BOM_R64_NW BOM_ROCI BOM_POCI BOM_EYE BOM_POS_METHOD BOM_PRES_METHOD NADI_LAT NADI_LON NADI_CAT NADI_WIND NADI_PRES WELLINGTON_LAT WELLINGTON_LON WELLINGTON_WIND WELLINGTON_PRES DS824_LAT DS824_LON DS824_STAGE DS824_WIND DS824_PRES TD9636_LAT TD9636_LON TD9636_STAGE TD9636_WIND TD9636_PRES TD9635_LAT TD9635_LON TD9635_WIND TD9635_PRES TD9635_ROCI NEUMANN_LAT NEUMANN_LON NEUMANN_CLASS NEUMANN_WIND NEUMANN_PRES MLC_LAT MLC_LON MLC_CLASS MLC_WIND MLC_PRES USA_GUST BOM_GUST BOM_GUST_PER REUNION_GUST REUNION_GUST_PER USA_SEAHGT USA_SEARAD_NE USA_SEARAD_SE USA_SEARAD_SW USA_SEARAD_NW STORM_SPEED STORM_DIR
1895199N16142 1895 18 WP MM NOT_NAMED 1895-07-18 04:00:00 NR 15.8000 142.000 main 1825 1793 __________O___ -1 15.8000 142.000 7 8 276
1895199N16142 1895 18 WP MM NOT_NAMED 1895-07-18 06:00:00 NR 15.8263 141.723 main 1793 1754 __________P___ -1 15.8263 141.723 7 8 276
1895199N16142 1895 18 WP MM NOT_NAMED 1895-07-18 09:00:00 NR 15.8681 141.310 main 1754 1712 __________P___ -1 15.8681 141.310 7 8 277
1895199N16142 1895 18 WP MM NOT_NAMED 1895-07-18 12:00:00 NR 15.9167 140.909 main 1712 1672 __________P___ -1 15.9167 140.909 7 8 278
1895199N16142 1895 18 WP MM NOT_NAMED 1895-07-18 15:00:00 NR 15.9767 140.524 main 1672 1662 __________P___ -1 15.9767 140.524 7 7 280
1895199N16142 1895 18 WP MM NOT_NAMED 1895-07-18 16:00:00 NR 16.0000 140.400 main 1662 1641 __________O___ -1 16.0000 140.400 7 7 282
1895199N16142 1895 18 WP MM NOT_NAMED 1895-07-18 18:00:00 NR 16.0523 140.160 main 1644 1602 __________P___ -1 16.0523 140.160 7 7 284
1895199N16142 1895 18 WP MM NOT_NAMED 1895-07-18 21:00:00 NR 16.1436 139.814 main 1602 1574 __________P___ -1 16.1436 139.814 7 7 286
1895199N16142 1895 18 WP MM NOT_NAMED 1895-07-19 00:00:00 NR 16.2474 139.471 main 1574 1539 __________P___ -1 16.2474 139.471 7 7 288
1895199N16142 1895 18 WP MM NOT_NAMED 1895-07-19 03:00:00 NR 16.3607 139.121 main 1539 1528 __________P___ -1 16.3607 139.121 7 7 289
1895199N16142 1895 18 WP MM NOT_NAMED 1895-07-19 04:00:00 NR 16.4000 139.000 main 1528 1501 __________O___ -1 16.4000 139.000 7 8 287
1895199N16142 1895 18 WP MM NOT_NAMED 1895-07-19 06:00:00 NR 16.4724 138.739 main 1501 1464 __________P___ -1 16.4724 138.739 7 8 286
1895199N16142 1895 18 WP MM NOT_NAMED 1895-07-19 09:00:00 NR 16.5872 138.336 main 1464 1427 __________P___ -1 16.5872 138.336 7 8 287
1895199N16142 1895 18 WP MM NOT_NAMED 1895-07-19 12:00:00 NR 16.7121 137.928 main 1427 1394 __________P___ -1 16.7121 137.928 7 8 289
1895199N16142 1895 18 WP MM NOT_NAMED 1895-07-19 15:00:00 NR 16.8504 137.529 main 1394 1384 __________P___ -1 16.8504 137.529 7 8 290
1895199N16142 1895 18 WP MM NOT_NAMED 1895-07-19 16:00:00 NR 16.9000 137.400 main 1384 1368 __________O___ -1 16.9000 137.400 7 8 293
1895199N16142 1895 18 WP MM NOT_NAMED 1895-07-19 18:00:00 NR 17.0024 137.158 main 1368 1333 __________P___ -1 17.0024 137.158 7 8 295
1895199N16142 1895 18 WP MM NOT_NAMED 1895-07-19 21:00:00 NR 17.1686 136.807 main 1338 1313 __________P___ -1 17.1686 136.807 7 7 297
1895199N16142 1895 18 WP MM NOT_NAMED 1895-07-20 00:00:00 NR 17.3475 136.463 main 1313 1284 __________P___ -1 17.3475 136.463 7 8 299
1895199N16142 1895 18 WP MM NOT_NAMED 1895-07-20 03:00:00 NR 17.5357 136.117 main 1284 1279 __________P___ -1 17.5357 136.117 7 8 300
1895199N16142 1895 18 WP MM NOT_NAMED 1895-07-20 04:00:00 NR 17.6000 136.000 main 1279 1266 __________O___ -1 17.6000 136.000 7 8 299
1895199N16142 1895 18 WP MM NOT_NAMED 1895-07-20 06:00:00 NR 17.7222 135.761 main 1266 1239 __________P___ -1 17.7222 135.761 7 8 298
1895199N16142 1895 18 WP MM NOT_NAMED 1895-07-20 09:00:00 NR 17.9118 135.396 main 1239 1214 __________P___ -1 17.9118 135.396 7 8 299
1895199N16142 1895 18 WP MM NOT_NAMED 1895-07-20 12:00:00 NR 18.1117 135.021 main 1214 1191 __________P___ -1 18.1117 135.021 7 8 300
1895199N16142 1895 18 WP MM NOT_NAMED 1895-07-20 15:00:00 NR 18.3253 134.633 main 1191 1188 __________P___ -1 18.3253 134.633 7 9 300
1895199N16142 1895 18 WP MM NOT_NAMED 1895-07-20 16:00:00 NR 18.4000 134.500 main 1188 1166 __________O___ -1 18.4000 134.500 7 9 300
1895199N16142 1895 18 WP MM NOT_NAMED 1895-07-20 18:00:00 NR 18.5499 134.225 main 1166 1142 __________P___ -1 18.5499 134.225 7 9 300
1895199N16142 1895 18 WP MM NOT_NAMED 1895-07-20 21:00:00 NR 18.7874 133.801 main 1142 1116 __________P___ -1 18.7874 133.801 7 9 301
1895199N16142 1895 18 WP MM NOT_NAMED 1895-07-21 00:00:00 NR 19.0399 133.369 main 1116 1088 __________P___ -1 19.0399 133.369 7 10 303
1895199N16142 1895 18 WP MM NOT_NAMED 1895-07-21 03:00:00 NR 19.3075 132.941 main 1088 1085 __________P___ -1 19.3075 132.941 7 10 304
1895199N16142 1895 18 WP MM NOT_NAMED 1895-07-21 04:00:00 NR 19.4000 132.800 main 1085 1072 __________O___ -1 19.4000 132.800 7 10 305
1895199N16142 1895 18 WP MM NOT_NAMED 1895-07-21 06:00:00 NR 19.5858 132.520 main 1072 1042 __________P___ -1 19.5858 132.520 7 10 306
1895199N16142 1895 18 WP MM NOT_NAMED 1895-07-21 09:00:00 NR 19.8773 132.105 main 1042 1004 __________P___ -1 19.8773 132.105 7 10 308
1895199N16142 1895 18 WP MM NOT_NAMED 1895-07-21 12:00:00 NR 20.1811 131.704 main 1006 972 __________P___ -1 20.1811 131.704 7 10 310
1895199N16142 1895 18 WP MM NOT_NAMED 1895-07-21 15:00:00 NR 20.4942 131.322 main 972 964 __________P___ -1 20.4942 131.322 7 9 312
1895199N16142 1895 18 WP MM NOT_NAMED 1895-07-21 16:00:00 NR 20.6000 131.200 main 964 939 __________O___ -1 20.6000 131.200 7 9 312
1895199N16142 1895 18 WP MM NOT_NAMED 1895-07-21 18:00:00 NR 20.8056 130.945 main 939 919 __________P___ -1 20.8056 130.945 7 9 312
1895199N16142 1895 18 WP MM NOT_NAMED 1895-07-21 21:00:00 NR 21.1204 130.581 main 919 900 __________P___ -1 21.1204 130.581 7 9 315
1895199N16142 1895 18 WP MM NOT_NAMED 1895-07-22 00:00:00 NR 21.4455 130.254 main 900 880 __________P___ -1 21.4455 130.254 7 9 320
1895199N16142 1895 18 WP MM NOT_NAMED 1895-07-22 03:00:00 NR 21.7838 129.978 main 880 867 __________P___ -1 21.7838 129.978 7 8 324
1895199N16142 1895 18 WP MM NOT_NAMED 1895-07-22 04:00:00 NR 21.9000 129.900 main 867 849 __________O___ -1 21.9000 129.900 3 8 332
1895199N16142 1895 18 WP MM NOT_NAMED 1895-07-22 06:00:00 NR 22.1356 129.773 main 849 815 __________P___ -1 22.1356 129.773 3 8 338
1895199N16142 1895 18 WP MM NOT_NAMED 1895-07-22 09:00:00 NR 22.5019 129.633 main 815 793 __________P___ -1 22.5019 129.633 3 8 343
1895199N16142 1895 18 WP MM NOT_NAMED 1895-07-22 12:00:00 NR 22.8808 129.530 main 793 773 __________P___ -1 22.8808 129.530 3 8 347
1895199N16142 1895 18 WP MM NOT_NAMED 1895-07-22 15:00:00 NR 23.2691 129.435 main 773 770 __________P___ -1 23.2691 129.435 3 8 347
1895199N16142 1895 18 WP MM NOT_NAMED 1895-07-22 16:00:00 NR 23.4000 129.400 main 770 753 __________O___ -1 23.4000 129.400 4 8 346
1895199N16142 1895 18 WP MM NOT_NAMED 1895-07-22 18:00:00 NR 23.6635 129.321 main 753 734 __________P___ -1 23.6635 129.321 4 8 343
1895199N16142 1895 18 WP MM NOT_NAMED 1895-07-22 21:00:00 NR 24.0619 129.182 main 734 708 __________P___ -1 24.0619 129.182 4 8 341
1895199N16142 1895 18 WP MM NOT_NAMED 1895-07-23 00:00:00 NR 24.4631 129.025 main 708 695 __________P___ -1 24.4631 129.025 4 9 340
1895199N16142 1895 18 WP MM NOT_NAMED 1895-07-23 03:00:00 NR 24.8657 128.857 main 695 684 __________P___ -1 24.8657 128.857 4 9 339
1895199N16142 1895 18 WP MM NOT_NAMED 1895-07-23 04:00:00 NR 25.0000 128.800 main 684 __________O___ -1 25.0000 128.800 4 9 335

Digital Typhoon Data and Search

About IBTrACS Database

This database is a web-friendly format of International Best Track Archive for Climate Stewardship (IBTrACS), a global best track data archive curated by NOAA dating back to 1842.

Updated: 2021-11-26